createdAt,value
2022-10-11T00:00:18.637Z,90.78
2022-10-11T00:00:50.260Z,90.90
2022-10-11T00:01:21.895Z,91.33
2022-10-11T00:01:53.436Z,91.38
2022-10-11T00:02:26.556Z,90.96
2022-10-11T00:02:58.342Z,90.95
2022-10-11T00:03:29.935Z,91.15
2022-10-11T00:04:01.645Z,91.30
2022-10-11T00:04:33.217Z,91.16
2022-10-11T00:05:05.154Z,90.72
2022-10-11T00:05:36.885Z,90.93
2022-10-11T00:06:09.360Z,90.94
2022-10-11T00:06:43.487Z,90.95
2022-10-11T00:07:15.012Z,90.64
2022-10-11T00:07:46.554Z,91.16
2022-10-11T00:08:18.121Z,90.99
2022-10-11T00:08:49.641Z,90.86
2022-10-11T00:09:21.177Z,90.78
2022-10-11T00:09:52.700Z,90.99
2022-10-11T00:10:24.666Z,91.10
2022-10-11T00:11:00.891Z,90.86
2022-10-11T00:11:32.647Z,91.11
2022-10-11T00:12:04.654Z,91.11
2022-10-11T00:12:37.108Z,91.32
2022-10-11T00:13:09.840Z,91.29
2022-10-11T00:13:41.364Z,91.20
2022-10-11T00:14:12.971Z,91.21
2022-10-11T00:14:44.501Z,91.12
2022-10-11T00:15:18.849Z,91.28
2022-10-11T00:15:50.425Z,91.14
2022-10-11T00:16:21.979Z,91.00
2022-10-11T00:16:54.074Z,90.88
2022-10-11T00:17:25.651Z,90.78
2022-10-11T00:17:57.213Z,90.76
2022-10-11T00:18:28.834Z,90.85
2022-10-11T00:19:00.386Z,90.98
2022-10-11T00:19:32.144Z,91.36
2022-10-11T00:20:04.819Z,91.47
2022-10-11T00:20:36.352Z,91.61
2022-10-11T00:21:10.674Z,91.85
2022-10-11T00:21:42.231Z,91.78
2022-10-11T00:22:13.775Z,91.47
2022-10-11T00:22:45.337Z,91.48
2022-10-11T00:23:17.017Z,91.52
2022-10-11T00:23:49.305Z,91.46
2022-10-11T00:24:20.881Z,91.44
2022-10-11T00:24:52.978Z,91.37
2022-10-11T00:25:24.515Z,91.09
2022-10-11T00:26:00.943Z,90.91
2022-10-11T00:26:32.647Z,90.99
2022-10-11T00:27:04.183Z,91.16
2022-10-11T00:27:36.743Z,91.36
2022-10-11T00:28:08.499Z,91.32
2022-10-11T00:28:41.354Z,91.32
2022-10-11T00:29:13.067Z,91.44
2022-10-11T00:29:44.681Z,91.36
2022-10-11T00:30:16.197Z,91.29
2022-10-11T00:30:47.752Z,91.42
2022-10-11T00:31:19.455Z,91.36
2022-10-11T00:31:51.052Z,91.83
2022-10-11T00:32:22.731Z,91.91
2022-10-11T00:32:54.288Z,91.75
2022-10-11T00:33:25.894Z,91.89
2022-10-11T00:33:57.511Z,92.15
2022-10-11T00:34:29.365Z,92.36
2022-10-11T00:35:04.826Z,92.43
2022-10-11T00:35:41.091Z,92.48
2022-10-11T00:36:17.237Z,92.26
2022-10-11T00:36:48.794Z,92.19
2022-10-11T00:37:20.669Z,92.18
2022-10-11T00:37:52.197Z,92.10
2022-10-11T00:38:23.716Z,92.41
2022-10-11T00:38:55.244Z,92.74
2022-10-11T00:39:26.997Z,92.34
2022-10-11T00:39:58.606Z,92.55
2022-10-11T00:40:30.125Z,92.44
2022-10-11T00:41:02.549Z,92.37
2022-10-11T00:41:34.236Z,92.23
2022-10-11T00:42:13.853Z,92.42
2022-10-11T00:42:46.448Z,92.36
2022-10-11T00:43:20.722Z,92.18
2022-10-11T00:44:21.378Z,92.64
2022-10-11T00:45:27.751Z,93.05
2022-10-11T00:46:07.573Z,92.81
2022-10-11T00:46:42.409Z,92.77
2022-10-11T00:47:24.781Z,92.98
2022-10-11T00:48:00.558Z,92.81
2022-10-11T00:48:32.072Z,92.52
2022-10-11T00:49:29.576Z,92.55
2022-10-11T00:50:01.693Z,92.87
2022-10-11T00:50:35.250Z,92.81
2022-10-11T00:51:29.481Z,92.58
2022-10-11T00:52:12.216Z,92.59
2022-10-11T00:52:50.070Z,92.57
2022-10-11T00:53:22.839Z,92.93
2022-10-11T00:53:54.754Z,92.71
2022-10-11T00:54:31.258Z,93.02
2022-10-11T00:55:12.059Z,92.98
2022-10-11T00:55:53.782Z,92.84
2022-10-11T00:56:29.380Z,92.79
2022-10-11T00:57:05.467Z,92.84
2022-10-11T00:57:41.399Z,93.08
2022-10-11T00:58:13.620Z,93.27
2022-10-11T00:58:45.211Z,93.15
2022-10-11T00:59:21.187Z,93.09
2022-10-11T00:59:54.974Z,92.91
2022-10-11T01:00:26.636Z,92.95
2022-10-11T01:00:58.474Z,93.11
2022-10-11T01:01:30.337Z,93.28
2022-10-11T01:02:02.520Z,93.12
2022-10-11T01:02:34.395Z,92.89
2022-10-11T01:03:06.155Z,92.92
2022-10-11T01:03:39.815Z,92.98
2022-10-11T01:04:11.422Z,93.01
2022-10-11T01:04:43.483Z,93.00
2022-10-11T01:05:29.242Z,92.97
2022-10-11T01:06:03.666Z,92.74
2022-10-11T01:06:35.942Z,92.68
2022-10-11T01:07:08.949Z,92.63
2022-10-11T01:07:41.613Z,92.59
2022-10-11T01:08:13.274Z,92.55
2022-10-11T01:08:44.888Z,92.43
2022-10-11T01:09:18.766Z,92.59
2022-10-11T01:09:50.282Z,92.49
2022-10-11T01:10:22.492Z,92.63
2022-10-11T01:10:54.506Z,92.62
2022-10-11T01:11:28.510Z,92.60
2022-10-11T01:12:03.463Z,92.75
2022-10-11T01:12:35.500Z,92.79
2022-10-11T01:13:44.673Z,93.07
2022-10-11T01:14:16.154Z,92.90
2022-10-11T01:14:59.560Z,92.84
2022-10-11T01:15:47.180Z,92.83
2022-10-11T01:16:34.102Z,92.73
2022-10-11T01:17:31.638Z,92.64
2022-10-11T01:18:24.830Z,92.71
2022-10-11T01:19:11.390Z,92.96
2022-10-11T01:20:10.585Z,92.77
2022-10-11T01:20:45.023Z,92.63
2022-10-11T01:21:59.640Z,92.65
2022-10-11T01:22:43.345Z,92.60
2022-10-11T01:24:08.196Z,92.74
2022-10-11T01:24:56.206Z,92.75
2022-10-11T01:25:37.036Z,92.91
2022-10-11T01:26:29.798Z,93.07
2022-10-11T01:27:27.604Z,92.82
2022-10-11T01:28:22.925Z,92.72
2022-10-11T01:29:03.366Z,92.55
2022-10-11T01:30:02.289Z,92.74
2022-10-11T01:30:36.335Z,92.57
2022-10-11T01:31:19.917Z,92.43
2022-10-11T01:32:01.646Z,92.31
2022-10-11T01:32:42.622Z,92.31
2022-10-11T01:33:35.178Z,92.31
2022-10-11T01:34:14.788Z,92.44
2022-10-11T01:35:05.675Z,92.66
2022-10-11T01:35:49.282Z,92.60
2022-10-11T01:36:56.170Z,92.81
2022-10-11T01:37:35.373Z,92.88
2022-10-11T01:38:21.353Z,92.78
2022-10-11T01:39:01.874Z,92.80
2022-10-11T01:39:38.787Z,92.99
2022-10-11T01:40:15.890Z,93.00
2022-10-11T01:40:52.942Z,93.09
2022-10-11T01:41:28.230Z,93.14
2022-10-11T01:42:04.116Z,93.02
2022-10-11T01:42:39.924Z,92.87
2022-10-11T01:43:13.101Z,92.72
2022-10-11T01:43:45.816Z,92.76
2022-10-11T01:44:17.730Z,93.13
2022-10-11T01:44:51.362Z,93.20
2022-10-11T01:45:24.130Z,93.17
2022-10-11T01:45:58.886Z,93.20
2022-10-11T01:46:31.579Z,93.50
2022-10-11T01:47:03.272Z,93.60
2022-10-11T01:47:34.971Z,93.33
2022-10-11T01:48:12.535Z,93.43
2022-10-11T01:48:51.903Z,93.50
2022-10-11T01:49:23.601Z,93.57
2022-10-11T01:49:58.137Z,93.80
2022-10-11T01:50:43.710Z,93.77
2022-10-11T01:51:15.810Z,94.13
2022-10-11T01:51:50.942Z,93.87
2022-10-11T01:52:23.044Z,93.85
2022-10-11T01:52:56.792Z,94.16
2022-10-11T01:53:44.077Z,93.86
2022-10-11T01:55:08.233Z,93.43
2022-10-11T01:56:22.571Z,93.78
2022-10-11T01:57:26.198Z,93.55
2022-10-11T01:58:12.446Z,93.67
2022-10-11T01:59:09.870Z,93.59
2022-10-11T02:00:10.111Z,93.99
2022-10-11T02:01:23.603Z,93.80
2022-10-11T02:02:21.479Z,94.00
2022-10-11T02:02:57.943Z,94.07
2022-10-11T02:03:50.816Z,94.10
2022-10-11T02:04:35.079Z,93.97
2022-10-11T02:05:11.960Z,94.21
2022-10-11T02:05:47.253Z,93.99
2022-10-11T02:06:34.338Z,93.99
2022-10-11T02:07:11.444Z,94.12
2022-10-11T02:07:45.882Z,94.12
2022-10-11T02:08:39.251Z,94.09
2022-10-11T02:09:47.275Z,94.01
2022-10-11T02:10:32.390Z,93.67
2022-10-11T02:11:09.408Z,93.42
2022-10-11T02:11:41.467Z,93.44
2022-10-11T02:12:20.737Z,93.25
2022-10-11T02:13:06.496Z,93.47
2022-10-11T02:14:00.954Z,93.62
2022-10-11T02:14:38.558Z,94.20
2022-10-11T02:15:13.467Z,94.17
2022-10-11T02:15:47.599Z,93.98
2022-10-11T02:16:23.746Z,93.87
2022-10-11T02:17:03.947Z,93.70
2022-10-11T02:17:42.074Z,93.71
2022-10-11T02:18:20.172Z,93.67
2022-10-11T02:18:55.085Z,93.77
2022-10-11T02:19:38.643Z,93.65
2022-10-11T02:20:18.462Z,93.63
2022-10-11T02:20:51.913Z,93.67
2022-10-11T02:21:24.716Z,93.82
2022-10-11T02:22:06.263Z,93.65
2022-10-11T02:22:40.592Z,93.62
2022-10-11T02:23:17.148Z,93.96
2022-10-11T02:23:53.622Z,94.04
2022-10-11T02:24:30.788Z,93.99
2022-10-11T02:25:07.060Z,93.83
2022-10-11T02:25:38.958Z,93.99
2022-10-11T02:26:12.036Z,93.83
2022-10-11T02:26:49.164Z,93.81
2022-10-11T02:27:25.664Z,93.93
2022-10-11T02:28:01.349Z,93.80
2022-10-11T02:28:36.771Z,93.90
2022-10-11T02:29:12.110Z,94.14
2022-10-11T02:29:46.479Z,94.28
2022-10-11T02:30:18.216Z,94.23
2022-10-11T02:30:51.901Z,94.31
2022-10-11T02:31:25.050Z,94.46
2022-10-11T02:31:58.540Z,94.04
2022-10-11T02:32:31.788Z,94.08
2022-10-11T02:33:07.678Z,93.94
2022-10-11T02:34:02.086Z,93.81
2022-10-11T02:34:45.997Z,93.80
2022-10-11T02:35:17.672Z,93.74
2022-10-11T02:35:54.557Z,93.92
2022-10-11T02:36:49.087Z,93.93
2022-10-11T02:37:51.549Z,94.02
2022-10-11T02:38:31.504Z,94.23
2022-10-11T02:39:10.315Z,93.94
2022-10-11T02:39:55.469Z,94.00
2022-10-11T02:40:34.497Z,94.20
2022-10-11T02:41:15.254Z,93.88
2022-10-11T02:41:47.373Z,93.73
2022-10-11T02:42:26.489Z,94.09
2022-10-11T02:43:03.585Z,94.06
2022-10-11T02:43:43.041Z,93.85
2022-10-11T02:44:24.006Z,94.05
2022-10-11T02:45:06.859Z,93.71
2022-10-11T02:45:43.298Z,93.69
2022-10-11T02:46:17.746Z,93.75
2022-10-11T02:46:50.334Z,93.63
2022-10-11T02:47:22.143Z,93.79
2022-10-11T02:47:54.063Z,93.92
2022-10-11T02:48:28.500Z,94.21
2022-10-11T02:49:01.030Z,94.21
2022-10-11T02:49:33.018Z,94.31
2022-10-11T02:50:05.136Z,93.99
2022-10-11T02:50:38.786Z,93.70
2022-10-11T02:51:14.376Z,93.71
2022-10-11T02:51:45.894Z,93.84
2022-10-11T02:52:17.434Z,93.87
2022-10-11T02:52:49.282Z,93.70
2022-10-11T02:53:21.213Z,93.76
2022-10-11T02:53:53.430Z,93.68
2022-10-11T02:54:26.486Z,93.78
2022-10-11T02:54:58.092Z,93.56
2022-10-11T02:55:29.599Z,93.42
2022-10-11T02:56:01.472Z,93.37
2022-10-11T02:56:33.132Z,93.59
2022-10-11T02:57:04.633Z,93.85
2022-10-11T02:57:36.164Z,93.60
2022-10-11T02:58:07.761Z,93.62
2022-10-11T02:58:39.333Z,93.82
2022-10-11T02:59:10.908Z,94.10
2022-10-11T02:59:42.450Z,94.05
2022-10-11T03:00:14.647Z,94.34
2022-10-11T03:00:46.274Z,94.14
2022-10-11T03:01:17.871Z,94.27
2022-10-11T03:01:49.591Z,93.95
2022-10-11T03:02:21.172Z,94.06
2022-10-11T03:02:52.938Z,94.21
2022-10-11T03:03:24.452Z,93.98
2022-10-11T03:03:56.042Z,94.56
2022-10-11T03:04:27.590Z,94.74
2022-10-11T03:04:59.090Z,94.58
2022-10-11T03:05:30.684Z,94.77
2022-10-11T03:06:04.285Z,94.77
2022-10-11T03:06:36.180Z,94.70
2022-10-11T03:07:07.696Z,94.93
2022-10-11T03:07:39.298Z,94.78
2022-10-11T03:08:13.323Z,94.92
2022-10-11T03:08:44.914Z,94.79
2022-10-11T03:09:16.447Z,95.04
2022-10-11T03:09:48.052Z,94.88
2022-10-11T03:10:19.638Z,94.66
2022-10-11T03:10:51.165Z,94.67
2022-10-11T03:11:22.674Z,94.61
2022-10-11T03:11:54.184Z,94.64
2022-10-11T03:12:25.776Z,94.59
2022-10-11T03:12:57.318Z,94.90
2022-10-11T03:13:28.832Z,94.65
2022-10-11T03:14:00.355Z,94.70
2022-10-11T03:14:31.950Z,95.24
2022-10-11T03:15:04.101Z,95.01
2022-10-11T03:15:35.663Z,94.92
2022-10-11T03:16:07.432Z,94.94
2022-10-11T03:16:39.091Z,94.71
2022-10-11T03:17:34.505Z,94.76
2022-10-11T03:18:02.264Z,94.81
2022-10-11T03:18:33.787Z,94.55
2022-10-11T03:19:05.462Z,94.47
2022-10-11T03:19:37.014Z,94.46
2022-10-11T03:20:09.006Z,94.60
2022-10-11T03:20:40.555Z,94.57
2022-10-11T03:21:12.144Z,94.53
2022-10-11T03:21:43.642Z,94.56
2022-10-11T03:22:15.365Z,94.47
2022-10-11T03:22:46.934Z,94.47
2022-10-11T03:23:18.463Z,94.41
2022-10-11T03:23:50.000Z,94.34
2022-10-11T03:24:21.590Z,94.61
2022-10-11T03:24:53.094Z,94.49
2022-10-11T03:25:24.782Z,94.56
2022-10-11T03:25:56.294Z,94.38
2022-10-11T03:26:27.872Z,94.14
2022-10-11T03:26:59.408Z,93.91
2022-10-11T03:27:31.404Z,94.08
2022-10-11T03:28:03.236Z,94.05
2022-10-11T03:28:34.811Z,93.92
2022-10-11T03:29:06.377Z,93.99
2022-10-11T03:29:37.914Z,94.04
2022-10-11T03:30:13.291Z,94.05
2022-10-11T03:30:50.653Z,94.44
2022-10-11T03:31:23.665Z,94.41
2022-10-11T03:31:55.295Z,94.42
2022-10-11T03:32:26.858Z,94.42
2022-10-11T03:32:58.360Z,94.36
2022-10-11T03:33:30.250Z,94.28
2022-10-11T03:34:01.880Z,94.38
2022-10-11T03:34:33.430Z,94.29
2022-10-11T03:35:05.478Z,94.33
2022-10-11T03:35:37.065Z,94.38
2022-10-11T03:36:09.141Z,94.43
2022-10-11T03:36:40.936Z,94.40
2022-10-11T03:37:12.457Z,94.46
2022-10-11T03:37:44.283Z,94.61
2022-10-11T03:38:19.238Z,94.44
2022-10-11T03:38:50.779Z,94.38
2022-10-11T03:39:22.424Z,94.23
2022-10-11T03:39:54.010Z,94.38
2022-10-11T03:40:25.560Z,94.42
2022-10-11T03:40:57.104Z,94.29
2022-10-11T03:41:29.266Z,94.31
2022-10-11T03:42:00.782Z,94.49
2022-10-11T03:42:32.339Z,94.59
2022-10-11T03:43:03.971Z,94.50
2022-10-11T03:43:35.750Z,94.43
2022-10-11T03:44:07.386Z,94.19
2022-10-11T03:44:38.895Z,94.11
2022-10-11T03:45:10.805Z,94.70
2022-10-11T03:45:42.446Z,95.08
2022-10-11T03:46:14.206Z,95.15
2022-10-11T03:46:45.746Z,94.98
2022-10-11T03:47:17.566Z,94.99
2022-10-11T03:47:49.470Z,95.00
2022-10-11T03:48:20.977Z,95.24
2022-10-11T03:48:52.472Z,95.17
2022-10-11T03:49:24.087Z,94.93
2022-10-11T03:49:55.595Z,94.70
2022-10-11T03:50:27.195Z,94.59
2022-10-11T03:50:58.734Z,94.74
2022-10-11T03:51:31.281Z,94.83
2022-10-11T03:52:02.824Z,94.96
2022-10-11T03:52:35.095Z,94.91
2022-10-11T03:53:07.493Z,94.89
2022-10-11T03:53:39.800Z,94.86
2022-10-11T03:54:11.342Z,94.82
2022-10-11T03:54:43.091Z,94.83
2022-10-11T03:55:14.612Z,94.81
2022-10-11T03:55:46.120Z,94.84
2022-10-11T03:56:17.654Z,94.89
2022-10-11T03:56:49.172Z,94.98
2022-10-11T03:57:20.724Z,95.18
2022-10-11T03:57:52.218Z,95.29
2022-10-11T03:58:24.474Z,95.22
2022-10-11T03:58:55.996Z,95.17
2022-10-11T03:59:27.516Z,95.04
2022-10-11T03:59:59.016Z,94.98
2022-10-11T04:00:30.796Z,94.99
2022-10-11T04:01:02.298Z,94.97
2022-10-11T04:01:37.953Z,94.93
2022-10-11T04:02:09.640Z,94.98
2022-10-11T04:02:41.223Z,95.11
2022-10-11T04:03:12.769Z,95.00
2022-10-11T04:03:44.290Z,95.03
2022-10-11T04:04:16.047Z,94.88
2022-10-11T04:04:47.654Z,95.05
2022-10-11T04:05:19.177Z,94.90
2022-10-11T04:05:50.780Z,95.05
2022-10-11T04:06:22.275Z,95.03
2022-10-11T04:06:53.778Z,94.86
2022-10-11T04:07:25.406Z,95.17
2022-10-11T04:07:56.940Z,95.05
2022-10-11T04:08:28.496Z,95.16
2022-10-11T04:09:00.107Z,95.21
2022-10-11T04:09:31.887Z,95.16
2022-10-11T04:10:03.610Z,95.42
2022-10-11T04:10:35.199Z,95.48
2022-10-11T04:11:06.920Z,95.37
2022-10-11T04:11:38.477Z,95.40
2022-10-11T04:12:10.122Z,95.35
2022-10-11T04:12:41.638Z,95.34
2022-10-11T04:13:13.224Z,95.30
2022-10-11T04:13:44.723Z,95.27
2022-10-11T04:14:17.157Z,95.25
2022-10-11T04:14:48.678Z,95.18
2022-10-11T04:15:20.353Z,95.21
2022-10-11T04:15:51.887Z,95.10
2022-10-11T04:16:23.384Z,94.99
2022-10-11T04:16:58.358Z,95.15
2022-10-11T04:17:32.007Z,95.26
2022-10-11T04:18:03.865Z,95.23
2022-10-11T04:18:35.369Z,95.08
2022-10-11T04:19:07.311Z,95.01
2022-10-11T04:19:38.840Z,94.93
2022-10-11T04:20:11.059Z,94.82
2022-10-11T04:20:42.807Z,95.09
2022-10-11T04:21:14.390Z,95.02
2022-10-11T04:21:45.900Z,95.03
2022-10-11T04:22:17.453Z,95.02
2022-10-11T04:22:49.211Z,94.85
2022-10-11T04:23:20.748Z,94.96
2022-10-11T04:23:52.260Z,94.95
2022-10-11T04:24:23.811Z,95.26
2022-10-11T04:24:55.422Z,95.16
2022-10-11T04:25:27.098Z,95.49
2022-10-11T04:25:58.615Z,95.65
2022-10-11T04:26:30.187Z,95.53
2022-10-11T04:27:01.711Z,95.59
2022-10-11T04:27:33.594Z,95.41
2022-10-11T04:28:05.258Z,95.33
2022-10-11T04:28:36.845Z,95.67
2022-10-11T04:29:08.379Z,95.62
2022-10-11T04:29:39.906Z,95.46
2022-10-11T04:30:12.096Z,95.72
2022-10-11T04:30:43.631Z,95.57
2022-10-11T04:31:15.222Z,95.42
2022-10-11T04:31:46.754Z,95.34
2022-10-11T04:32:18.285Z,95.41
2022-10-11T04:32:49.817Z,95.33
2022-10-11T04:33:21.396Z,95.19
2022-10-11T04:33:53.124Z,95.36
2022-10-11T04:34:24.750Z,95.13
2022-10-11T04:34:56.282Z,95.08
2022-10-11T04:35:27.830Z,95.02
2022-10-11T04:35:59.354Z,95.01
2022-10-11T04:36:33.007Z,94.97
2022-10-11T04:37:04.516Z,95.05
2022-10-11T04:37:36.093Z,95.04
2022-10-11T04:38:07.642Z,95.21
2022-10-11T04:38:39.211Z,95.37
2022-10-11T04:39:10.833Z,95.40
2022-10-11T04:39:42.328Z,95.38
2022-10-11T04:40:13.951Z,95.38
2022-10-11T04:40:45.484Z,95.46
2022-10-11T04:41:17.016Z,95.51
2022-10-11T04:41:48.636Z,95.45
2022-10-11T04:42:21.064Z,95.32
2022-10-11T04:42:53.729Z,95.29
2022-10-11T04:43:25.221Z,95.36
2022-10-11T04:43:56.939Z,95.13
2022-10-11T04:44:28.460Z,94.94
2022-10-11T04:45:00.034Z,94.77
2022-10-11T04:45:32.135Z,94.77
2022-10-11T04:46:05.250Z,94.73
2022-10-11T04:46:37.000Z,94.61
2022-10-11T04:47:08.717Z,94.55
2022-10-11T04:47:41.126Z,94.53
2022-10-11T04:48:13.957Z,94.47
2022-10-11T04:48:45.527Z,94.53
2022-10-11T04:49:17.077Z,94.60
2022-10-11T04:49:48.646Z,94.66
2022-10-11T04:50:20.160Z,94.48
2022-10-11T04:50:51.719Z,94.50
2022-10-11T04:51:23.396Z,94.46
2022-10-11T04:51:54.983Z,94.42
2022-10-11T04:52:26.524Z,94.26
2022-10-11T04:52:58.029Z,94.09
2022-10-11T04:53:29.964Z,93.95
2022-10-11T04:54:01.586Z,93.96
2022-10-11T04:54:33.073Z,93.86
2022-10-11T04:55:05.120Z,93.80
2022-10-11T04:55:36.689Z,94.01
2022-10-11T04:56:11.521Z,94.03
2022-10-11T04:56:43.333Z,94.05
2022-10-11T04:57:14.830Z,94.11
2022-10-11T04:57:46.353Z,94.07
2022-10-11T04:58:17.988Z,93.96
2022-10-11T04:58:51.906Z,93.90
2022-10-11T04:59:23.447Z,93.93
2022-10-11T04:59:54.983Z,94.00
2022-10-11T05:00:27.466Z,94.05
2022-10-11T05:00:59.032Z,94.16
2022-10-11T05:01:30.571Z,94.17
2022-10-11T05:02:02.172Z,94.09
2022-10-11T05:02:33.799Z,94.55
2022-10-11T05:03:05.362Z,94.55
2022-10-11T05:03:37.811Z,94.35
2022-10-11T05:04:09.364Z,94.62
2022-10-11T05:04:41.945Z,94.85
2022-10-11T05:05:17.411Z,95.07
2022-10-11T05:05:49.232Z,94.79
2022-10-11T05:06:20.754Z,94.90
2022-10-11T05:06:52.321Z,94.95
2022-10-11T05:07:23.833Z,95.10
2022-10-11T05:07:55.362Z,94.77
2022-10-11T05:08:26.967Z,94.82
2022-10-11T05:08:58.485Z,95.12
2022-10-11T05:09:30.043Z,94.92
2022-10-11T05:10:01.899Z,94.99
2022-10-11T05:10:33.407Z,94.76
2022-10-11T05:11:07.962Z,94.70
2022-10-11T05:11:39.473Z,94.54
2022-10-11T05:12:11.225Z,94.43
2022-10-11T05:12:42.788Z,94.54
2022-10-11T05:13:14.305Z,94.65
2022-10-11T05:13:46.315Z,94.69
2022-10-11T05:14:17.828Z,94.67
2022-10-11T05:14:49.388Z,94.84
2022-10-11T05:15:20.919Z,94.75
2022-10-11T05:15:52.877Z,94.88
2022-10-11T05:16:24.676Z,94.85
2022-10-11T05:16:56.240Z,94.80
2022-10-11T05:17:27.816Z,94.68
2022-10-11T05:17:59.474Z,94.60
2022-10-11T05:18:31.196Z,94.73
2022-10-11T05:19:02.790Z,94.59
2022-10-11T05:19:34.378Z,94.62
2022-10-11T05:20:06.831Z,94.87
2022-10-11T05:20:38.335Z,94.72
2022-10-11T05:21:22.039Z,94.66
2022-10-11T05:21:54.984Z,94.72
2022-10-11T05:22:26.553Z,94.78
2022-10-11T05:22:58.094Z,94.69
2022-10-11T05:23:31.286Z,94.74
2022-10-11T05:24:02.817Z,94.68
2022-10-11T05:24:34.491Z,95.54
2022-10-11T05:25:06.230Z,95.14
2022-10-11T05:25:37.937Z,95.07
2022-10-11T05:26:09.894Z,94.63
2022-10-11T05:26:41.484Z,94.62
2022-10-11T05:27:13.035Z,94.61
2022-10-11T05:27:44.575Z,94.18
2022-10-11T05:28:16.198Z,94.25
2022-10-11T05:28:48.140Z,94.17
2022-10-11T05:29:19.903Z,94.20
2022-10-11T05:29:51.436Z,94.61
2022-10-11T05:30:23.006Z,94.76
2022-10-11T05:30:54.883Z,95.07
2022-10-11T05:31:26.425Z,95.25
2022-10-11T05:31:57.934Z,95.22
2022-10-11T05:32:29.493Z,95.37
2022-10-11T05:33:01.053Z,95.41
2022-10-11T05:33:32.845Z,95.47
2022-10-11T05:34:04.665Z,95.60
2022-10-11T05:34:36.197Z,95.46
2022-10-11T05:35:08.223Z,95.56
2022-10-11T05:35:39.923Z,95.54
2022-10-11T05:36:11.974Z,95.52
2022-10-11T05:36:43.593Z,95.22
2022-10-11T05:37:15.104Z,94.88
2022-10-11T05:37:46.673Z,94.65
2022-10-11T05:38:18.378Z,94.63
2022-10-11T05:38:49.969Z,94.54
2022-10-11T05:39:21.489Z,94.51
2022-10-11T05:39:53.204Z,93.99
2022-10-11T05:40:24.747Z,93.97
2022-10-11T05:41:03.392Z,94.24
2022-10-11T05:41:34.937Z,93.83
2022-10-11T05:42:09.920Z,93.60
2022-10-11T05:42:41.670Z,93.62
2022-10-11T05:43:13.225Z,93.61
2022-10-11T05:43:45.830Z,93.88
2022-10-11T05:44:17.353Z,93.65
2022-10-11T05:44:48.845Z,93.63
2022-10-11T05:45:23.298Z,93.67
2022-10-11T05:45:54.955Z,93.61
2022-10-11T05:46:26.502Z,93.31
2022-10-11T05:46:58.056Z,93.16
2022-10-11T05:47:29.610Z,93.33
2022-10-11T05:48:01.126Z,93.12
2022-10-11T05:48:32.756Z,93.45
2022-10-11T05:49:04.301Z,93.33
2022-10-11T05:49:35.818Z,93.23
2022-10-11T05:50:07.539Z,93.31
2022-10-11T05:50:39.491Z,93.39
2022-10-11T05:51:11.962Z,93.39
2022-10-11T05:51:43.572Z,93.34
2022-10-11T05:52:19.798Z,93.35
2022-10-11T05:52:51.466Z,93.44
2022-10-11T05:53:22.987Z,93.48
2022-10-11T05:53:54.524Z,93.36
2022-10-11T05:54:29.688Z,93.34
2022-10-11T05:55:01.229Z,93.13
2022-10-11T05:55:40.718Z,93.24
2022-10-11T05:56:23.583Z,93.52
2022-10-11T05:56:55.103Z,93.41
2022-10-11T05:57:26.618Z,93.24
2022-10-11T05:57:58.133Z,93.00
2022-10-11T05:58:30.051Z,92.94
2022-10-11T05:59:02.667Z,93.06
2022-10-11T05:59:35.198Z,92.90
2022-10-11T06:00:07.336Z,93.37
2022-10-11T06:00:39.175Z,93.34
2022-10-11T06:01:40.315Z,93.64
2022-10-11T06:02:13.261Z,93.51
2022-10-11T06:02:44.777Z,93.27
2022-10-11T06:03:16.406Z,93.28
2022-10-11T06:03:48.066Z,93.55
2022-10-11T06:04:19.674Z,93.52
2022-10-11T06:04:51.362Z,93.38
2022-10-11T06:05:22.893Z,93.41
2022-10-11T06:05:57.031Z,93.33
2022-10-11T06:06:28.920Z,93.30
2022-10-11T06:07:00.435Z,93.31
2022-10-11T06:07:33.022Z,93.25
2022-10-11T06:08:06.678Z,92.96
2022-10-11T06:08:38.226Z,93.08
2022-10-11T06:09:09.773Z,93.08
2022-10-11T06:09:41.336Z,93.01
2022-10-11T06:10:12.967Z,93.08
2022-10-11T06:10:44.869Z,93.00
2022-10-11T06:11:21.911Z,93.95
2022-10-11T06:11:53.523Z,94.12
2022-10-11T06:12:25.122Z,94.36
2022-10-11T06:12:56.659Z,94.81
2022-10-11T06:13:28.161Z,94.66
2022-10-11T06:13:59.793Z,94.46
2022-10-11T06:14:31.603Z,94.01
2022-10-11T06:15:04.498Z,93.92
2022-10-11T06:15:38.717Z,93.67
2022-10-11T06:16:11.178Z,93.54
2022-10-11T06:16:42.683Z,93.34
2022-10-11T06:17:14.258Z,93.77
2022-10-11T06:17:47.078Z,93.62
2022-10-11T06:18:18.616Z,93.60
2022-10-11T06:18:56.904Z,93.53
2022-10-11T06:19:29.382Z,93.96
2022-10-11T06:20:00.879Z,93.69
2022-10-11T06:20:32.718Z,93.63
2022-10-11T06:21:04.561Z,93.37
2022-10-11T06:21:36.176Z,93.33
2022-10-11T06:22:11.475Z,93.06
2022-10-11T06:22:42.986Z,92.86
2022-10-11T06:23:14.486Z,92.77
2022-10-11T06:23:50.179Z,92.72
2022-10-11T06:24:21.787Z,92.73
2022-10-11T06:24:53.330Z,92.96
2022-10-11T06:25:24.847Z,93.31
2022-10-11T06:25:58.574Z,93.39
2022-10-11T06:26:30.609Z,93.00
2022-10-11T06:27:02.126Z,92.85
2022-10-11T06:27:33.646Z,92.89
2022-10-11T06:28:05.206Z,92.63
2022-10-11T06:28:37.169Z,92.40
2022-10-11T06:29:09.530Z,92.45
2022-10-11T06:29:42.142Z,92.24
2022-10-11T06:30:14.321Z,92.25
2022-10-11T06:30:45.848Z,92.11
2022-10-11T06:31:17.372Z,92.07
2022-10-11T06:31:49.206Z,91.91
2022-10-11T06:32:20.804Z,91.84
2022-10-11T06:32:52.316Z,91.83
2022-10-11T06:33:24.890Z,91.80
2022-10-11T06:33:56.398Z,91.49
2022-10-11T06:34:28.152Z,91.45
2022-10-11T06:34:59.812Z,91.53
2022-10-11T06:35:31.400Z,91.31
2022-10-11T06:36:07.661Z,91.09
2022-10-11T06:36:39.499Z,91.01
2022-10-11T06:37:11.015Z,90.90
2022-10-11T06:37:42.594Z,90.73
2022-10-11T06:38:14.186Z,90.99
2022-10-11T06:38:45.845Z,90.98
2022-10-11T06:39:17.398Z,90.69
2022-10-11T06:39:50.392Z,90.83
2022-10-11T06:40:22.883Z,90.45
2022-10-11T06:40:54.583Z,90.18
2022-10-11T06:41:28.465Z,90.21
2022-10-11T06:42:00.031Z,90.08
2022-10-11T06:42:31.558Z,89.83
2022-10-11T06:43:03.478Z,89.67
2022-10-11T06:43:34.980Z,89.20
2022-10-11T06:44:09.657Z,88.85
2022-10-11T06:44:43.486Z,88.74
2022-10-11T06:45:15.109Z,88.74
2022-10-11T06:45:48.482Z,88.73
2022-10-11T06:46:22.129Z,88.36
2022-10-11T06:46:53.680Z,88.14
2022-10-11T06:47:25.312Z,88.12
2022-10-11T06:47:56.848Z,88.43
2022-10-11T06:48:28.396Z,88.52
2022-10-11T06:48:59.960Z,88.30
2022-10-11T06:49:31.530Z,87.95
2022-10-11T06:50:03.213Z,87.91
2022-10-11T06:50:57.837Z,87.61
2022-10-11T06:51:27.217Z,87.45
2022-10-11T06:51:58.798Z,87.15
2022-10-11T06:52:30.315Z,87.23
2022-10-11T06:53:01.897Z,87.31
2022-10-11T06:53:33.487Z,87.34
2022-10-11T06:54:05.345Z,88.18
2022-10-11T06:54:39.157Z,87.66
2022-10-11T06:55:14.183Z,87.12
2022-10-11T06:55:45.704Z,87.67
2022-10-11T06:56:18.020Z,87.62
2022-10-11T06:56:49.599Z,87.62
2022-10-11T06:57:21.141Z,87.29
2022-10-11T06:57:53.171Z,86.74
2022-10-11T06:58:24.702Z,86.28
2022-10-11T06:58:57.751Z,85.11
2022-10-11T06:59:29.317Z,83.38
2022-10-11T07:00:00.865Z,81.61
2022-10-11T07:00:32.426Z,80.62
2022-10-11T07:01:09.913Z,79.42
2022-10-11T07:01:42.582Z,78.95
2022-10-11T07:02:14.144Z,78.56
2022-10-11T07:02:45.674Z,78.12
2022-10-11T07:03:17.183Z,78.14
2022-10-11T07:03:49.075Z,78.22
2022-10-11T07:04:20.577Z,78.75
2022-10-11T07:04:52.128Z,78.14
2022-10-11T07:05:23.690Z,78.00
2022-10-11T07:06:10.822Z,78.46
2022-10-11T07:06:42.622Z,77.85
2022-10-11T07:07:14.404Z,77.30
2022-10-11T07:07:45.945Z,76.82
2022-10-11T07:08:17.674Z,77.00
2022-10-11T07:08:49.630Z,76.41
2022-10-11T07:09:21.147Z,75.44
2022-10-11T07:09:52.682Z,74.74
2022-10-11T07:10:24.199Z,74.06
2022-10-11T07:11:11.128Z,73.52
2022-10-11T07:11:42.630Z,74.72
2022-10-11T07:12:14.170Z,75.75
2022-10-11T07:12:46.054Z,76.87
2022-10-11T07:13:17.595Z,77.87
2022-10-11T07:13:56.330Z,77.85
2022-10-11T07:14:27.918Z,77.50
2022-10-11T07:14:59.426Z,77.04
2022-10-11T07:15:31.318Z,76.95
2022-10-11T07:16:11.196Z,75.59
2022-10-11T07:16:42.732Z,74.97
2022-10-11T07:17:14.241Z,74.36
2022-10-11T07:17:45.926Z,73.11
2022-10-11T07:18:17.436Z,72.19
2022-10-11T07:18:58.729Z,72.11
2022-10-11T07:19:31.603Z,71.30
2022-10-11T07:20:03.442Z,71.86
2022-10-11T07:20:36.062Z,72.08
2022-10-11T07:21:11.138Z,72.65
2022-10-11T07:21:42.769Z,73.14